Time;durP1;ratioP1;P1;durP2;ratioP2;P2;SDS_P1;SDS_P2;PMS_P1;PMS_P2;Temp;Humidity;BMP_temperature;BMP_pressure;BME280_temperature;BME280_humidity;BME280_pressure;Samples;Min_cycle;Max_cycle;Signal;HPM_P1;HPM_P2
2023/04/13 00:00:50;;;;;;;;;;;;;;;7.76;90.54;99378.31;5587019;31;33886;-66
2023/04/13 00:03:53;;;;;;;;;;;;;;;7.89;90.93;99376.94;5587016;31;33829;-66
2023/04/13 00:06:57;;;;;;;;;;;;;;;7.87;90.99;99377.13;5587179;31;35566;-66
2023/04/13 00:10:03;;;;;;;;;;;;;;;7.81;90.56;99368.06;5573115;31;34467;-66
2023/04/13 00:13:09;;;;;;;;;;;;;;;7.84;90.48;99372.19;5586659;31;34219;-67
2023/04/13 00:16:14;;;;;;;;;;;;;;;7.82;92.53;99371.53;5587033;31;34073;-66
2023/04/13 00:19:17;;;;;;;;;;;;;;;7.86;93.16;99372.81;5586806;31;34995;-66
2023/04/13 00:22:20;;;;;;;;;;;;;;;7.90;92.61;99368.00;5586627;31;34239;-66
2023/04/13 00:25:22;;;;;;;;;;;;;;;7.92;92.84;99376.59;5586622;31;34809;-66
2023/04/13 00:28:25;;;;;;;;;;;;;;;7.98;94.97;99370.63;5586498;31;34172;-66
2023/04/13 00:31:28;;;;;;;;;;;;;;;8.05;95.66;99372.38;5586542;31;34601;-66
2023/04/13 00:34:30;;;;;;;;;;;;;;;8.04;94.67;99365.44;5586653;31;34022;-67
2023/04/13 00:37:33;;;;;;;;;;;;;;;8.00;93.62;99373.88;5586270;31;32599;-66
2023/04/13 00:40:36;;;;;;;;;;;;;;;8.03;93.21;99373.56;5586405;31;34259;-66
2023/04/13 00:43:39;;;;;;;;;;;;;;;8.05;93.72;99359.16;5586159;31;34792;-67
2023/04/13 00:46:45;;;;;;;;;;;;;;;8.01;94.17;99364.97;5588810;31;34208;-67
2023/04/13 00:49:48;;;;;;;;;;;;;;;8.16;95.66;99360.56;5588583;31;34898;-66
2023/04/13 00:52:51;;;;;;;;;;;;;;;8.20;95.55;99357.38;5588691;31;33785;-66
2023/04/13 00:55:54;;;;;;;;;;;;;;;8.12;95.99;99359.28;5575097;31;34709;-66
2023/04/13 00:58:56;;;;;;;;;;;;;;;8.12;98.11;99351.34;5588700;31;34221;-66
2023/04/13 01:02:03;;;;;;;;;;;;;;;8.13;94.61;99355.66;5588634;31;34245;-66
2023/04/13 01:05:07;;;;;;;;;;;;;;;8.29;90.72;99351.06;5588525;31;35100;-66
2023/04/13 01:08:21;;;;;;;;;;;;;;;8.19;90.12;99353.09;5588887;31;34402;-66
2023/04/13 01:11:35;;;;;;;;;;;;;;;8.09;87.17;99356.97;5588612;31;33996;-66
2023/04/13 01:14:44;;;;;;;;;;;;;;;8.13;87.07;99356.44;5588420;31;33969;-66
2023/04/13 01:17:51;;;;;;;;;;;;;;;8.06;86.09;99359.97;5588840;31;34270;-66
2023/04/13 01:20:56;;;;;;;;;;;;;;;8.11;86.47;99357.62;5588331;31;33515;-66
2023/04/13 01:24:15;;;;;;;;;;;;;;;8.19;88.77;99349.62;5588711;31;34193;-66
2023/04/13 01:27:29;;;;;;;;;;;;;;;8.16;89.57;99348.19;5588413;31;34867;-66
2023/04/13 01:30:34;;;;;;;;;;;;;;;8.16;87.82;99340.25;5588393;31;34081;-66
2023/04/13 01:33:40;;;;;;;;;;;;;;;8.11;87.29;99345.25;5588069;31;34795;-66
2023/04/13 01:36:44;;;;;;;;;;;;;;;8.14;85.32;99346.69;5588658;31;34120;-66
2023/04/13 01:39:47;;;;;;;;;;;;;;;8.19;86.16;99349.62;5588362;31;33967;-66
2023/04/13 01:42:52;;;;;;;;;;;;;;;8.21;88.17;99348.47;5588221;31;34024;-66
2023/04/13 01:46:00;;;;;;;;;;;;;;;8.13;87.99;99345.09;5588399;31;34149;-66
2023/04/13 01:49:04;;;;;;;;;;;;;;;8.23;89.31;99350.91;5588433;31;34359;-66
2023/04/13 01:52:07;;;;;;;;;;;;;;;8.12;91.15;99354.81;5588082;31;34746;-66
2023/04/13 01:55:12;;;;;;;;;;;;;;;8.12;92.73;99359.28;5574408;31;34054;-66
2023/04/13 01:58:17;;;;;;;;;;;;;;;8.14;92.34;99363.38;5588100;31;34846;-65
2023/04/13 02:01:22;;;;;;;;;;;;;;;8.08;93.13;99364.09;5588160;31;34084;-66
2023/04/13 02:04:27;;;;;;;;;;;;;;;8.15;93.40;99353.63;5588048;31;34105;-66
2023/04/13 02:07:29;;;;;;;;;;;;;;;8.23;95.27;99362.31;5588052;31;34368;-66
2023/04/13 02:10:33;;;;;;;;;;;;;;;8.13;100.00;99359.09;5588137;31;34752;-66
2023/04/13 02:13:36;;;;;;;;;;;;;;;8.18;100.00;99361.22;5587905;31;33961;-66
2023/04/13 02:16:44;;;;;;;;;;;;;;;8.16;100.00;99360.56;5587866;31;34265;-66
2023/04/13 02:19:48;;;;;;;;;;;;;;;8.10;100.00;99356.81;5587993;31;34596;-66
2023/04/13 02:22:50;;;;;;;;;;;;;;;8.03;100.00;99355.88;5587661;31;34394;-66
2023/04/13 02:25:53;;;;;;;;;;;;;;;7.99;100.00;99361.69;5587865;31;34100;-66
2023/04/13 02:28:55;;;;;;;;;;;;;;;8.18;100.00;99358.59;5587795;31;34230;-66
2023/04/13 02:31:58;;;;;;;;;;;;;;;8.10;99.55;99361.25;5588052;31;34172;-66
2023/04/13 02:35:01;;;;;;;;;;;;;;;8.04;100.00;99361.97;5588005;31;34192;-66
2023/04/13 02:38:05;;;;;;;;;;;;;;;8.01;100.00;99362.31;5587568;31;34264;-66
2023/04/13 02:41:08;;;;;;;;;;;;;;;7.96;100.00;99360.22;5587982;31;34709;-67
2023/04/13 02:44:10;;;;;;;;;;;;;;;7.95;100.00;99361.22;5587489;31;33976;-66
2023/04/13 02:47:16;;;;;;;;;;;;;;;7.94;100.00;99356.13;5587657;31;34096;-66
2023/04/13 02:50:18;;;;;;;;;;;;;;;8.00;100.00;99361.50;5573767;31;34933;-66
2023/04/13 02:53:24;;;;;;;;;;;;;;;8.03;100.00;99355.88;5573668;31;34364;-66
2023/04/13 02:56:27;;;;;;;;;;;;;;;8.01;100.00;99359.69;5587895;31;34224;-66
2023/04/13 02:59:30;;;;;;;;;;;;;;;8.02;100.00;99359.53;5587562;31;34204;-66
2023/04/13 03:02:36;;;;;;;;;;;;;;;8.07;100.00;99359.00;5587821;31;34712;-66
2023/04/13 03:05:39;;;;;;;;;;;;;;;8.10;100.00;99366.53;5587580;31;34963;-66
2023/04/13 03:08:45;;;;;;;;;;;;;;;8.10;100.00;99363.91;5586869;31;34248;-66
2023/04/13 03:11:48;;;;;;;;;;;;;;;8.12;100.00;99362.75;5587800;31;34157;-66
2023/04/13 03:14:51;;;;;;;;;;;;;;;8.11;100.00;99362.91;5587599;31;34209;-66
2023/04/13 03:17:54;;;;;;;;;;;;;;;8.13;100.00;99363.56;5587455;31;34013;-67
2023/04/13 03:20:57;;;;;;;;;;;;;;;8.14;100.00;99351.97;5587456;31;34527;-67
2023/04/13 03:24:01;;;;;;;;;;;;;;;8.18;100.00;99346.16;5587260;31;34218;-66
2023/04/13 03:27:04;;;;;;;;;;;;;;;8.16;100.00;99355.28;5587583;31;34380;-66
2023/04/13 03:30:08;;;;;;;;;;;;;;;8.14;100.00;99350.16;5587246;31;34492;-66
2023/04/13 03:33:12;;;;;;;;;;;;;;;8.12;100.00;99346.91;5587479;31;33861;-66
2023/04/13 03:36:15;;;;;;;;;;;;;;;8.11;100.00;99341.78;5587274;31;34811;-66
2023/04/13 03:39:19;;;;;;;;;;;;;;;8.17;100.00;99344.53;5587116;31;33919;-66
2023/04/13 03:42:22;;;;;;;;;;;;;;;8.16;100.00;99339.44;5586937;31;34825;-66
2023/04/13 03:45:25;;;;;;;;;;;;;;;8.12;100.00;99335.50;5587317;31;34632;-65
2023/04/13 03:48:29;;;;;;;;;;;;;;;8.12;97.62;99336.34;5587274;31;34148;-66
2023/04/13 03:51:31;;;;;;;;;;;;;;;8.15;94.81;99343.06;5587289;31;34289;-67
2023/04/13 03:54:34;;;;;;;;;;;;;;;8.17;85.43;99349.84;5572995;31;35026;-66
2023/04/13 03:57:37;;;;;;;;;;;;;;;8.24;78.54;99350.75;5587296;31;34061;-67
2023/04/13 04:00:41;;;;;;;;;;;;;;;8.33;72.86;99348.09;5586949;31;34178;-68
2023/04/13 04:03:44;;;;;;;;;;;;;;;8.36;73.46;99351.19;5573372;31;33956;-67
2023/04/13 04:06:47;;;;;;;;;;;;;;;8.43;77.12;99353.91;5586845;31;34330;-66
2023/04/13 04:09:50;;;;;;;;;;;;;;;8.52;76.59;99356.31;5587140;31;34169;-66
2023/04/13 04:12:56;;;;;;;;;;;;;;;8.61;75.89;99352.63;5587104;31;32550;-66
2023/04/13 04:15:59;;;;;;;;;;;;;;;8.57;75.41;99358.41;5573025;31;34474;-66
2023/04/13 04:19:02;;;;;;;;;;;;;;;8.59;73.04;99361.72;5571494;31;34174;-66
2023/04/13 04:22:08;;;;;;;;;;;;;;;8.56;72.90;99352.34;5572521;31;33924;-65
2023/04/13 04:25:10;;;;;;;;;;;;;;;8.58;70.02;99354.78;5586545;31;34602;-66
2023/04/13 04:28:14;;;;;;;;;;;;;;;8.68;68.96;99357.97;5586702;31;34736;-66
2023/04/13 04:31:17;;;;;;;;;;;;;;;8.63;68.70;99358.53;5581577;31;34648;-65
2023/04/13 04:34:21;;;;;;;;;;;;;;;8.65;69.78;99361.81;5586190;31;34131;-65
2023/04/13 04:37:24;;;;;;;;;;;;;;;8.68;69.78;99363.28;5586510;31;34371;-66
2023/04/13 04:40:34;;;;;;;;;;;;;;;8.73;69.41;99363.56;5586495;31;34751;-67
2023/04/13 04:43:38;;;;;;;;;;;;;;;8.77;68.12;99372.75;5586087;31;35208;-67
2023/04/13 04:46:42;;;;;;;;;;;;;;;8.81;65.13;99360.03;5572180;31;34200;-66
2023/04/13 04:49:45;;;;;;;;;;;;;;;8.89;64.29;99366.03;5562756;32;34882;-66
2023/04/13 04:52:48;;;;;;;;;;;;;;;8.92;64.54;99360.37;5566614;32;34176;-66
2023/04/13 04:55:52;;;;;;;;;;;;;;;8.99;63.37;99366.59;5566149;32;34293;-66
2023/04/13 04:58:55;;;;;;;;;;;;;;;9.05;69.93;99362.41;5566498;32;34352;-66
2023/04/13 05:01:59;;;;;;;;;;;;;;;9.08;66.34;99360.22;5567830;32;34281;-66
2023/04/13 05:05:02;;;;;;;;;;;;;;;9.18;63.56;99356.47;5566295;32;34815;-66
2023/04/13 05:08:05;;;;;;;;;;;;;;;9.29;61.79;99356.81;5566407;31;34089;-67
2023/04/13 05:11:12;;;;;;;;;;;;;;;9.41;63.32;99357.97;5566323;31;33597;-66
2023/04/13 05:14:16;;;;;;;;;;;;;;;9.40;57.35;99361.63;5574314;31;33698;-66
2023/04/13 05:17:19;;;;;;;;;;;;;;;9.38;57.23;99354.88;5568066;31;34023;-66
2023/04/13 05:20:21;;;;;;;;;;;;;;;9.29;56.97;99356.81;5557684;31;34203;-66
2023/04/13 05:23:25;;;;;;;;;;;;;;;9.27;57.89;99344.75;5577521;31;33863;-67
2023/04/13 05:26:33;;;;;;;;;;;;;;;9.27;58.01;99342.12;5565531;31;34600;-67
2023/04/13 05:29:36;;;;;;;;;;;;;;;9.27;58.39;99342.12;5569793;31;33852;-66
2023/04/13 05:32:39;;;;;;;;;;;;;;;9.36;58.62;99349.78;5568741;32;34587;-66
2023/04/13 05:35:42;;;;;;;;;;;;;;;9.59;60.82;99363.69;5570338;31;34778;-66
2023/04/13 05:38:45;;;;;;;;;;;;;;;9.93;58.05;99357.75;5566251;32;33999;-67
2023/04/13 05:41:49;;;;;;;;;;;;;;;10.40;55.65;99353.75;5574615;31;34317;-67
2023/04/13 05:44:52;;;;;;;;;;;;;;;10.58;54.50;99359.38;5575896;31;34541;-68
2023/04/13 05:47:55;;;;;;;;;;;;;;;11.20;54.39;99363.84;5576128;31;33901;-67
2023/04/13 05:50:58;;;;;;;;;;;;;;;11.28;51.47;99361.03;5585968;31;33799;-67
2023/04/13 05:54:02;;;;;;;;;;;;;;;11.20;50.35;99361.19;5568176;31;34584;-67
2023/04/13 05:57:06;;;;;;;;;;;;;;;11.13;50.01;99365.66;5586741;31;34241;-67
2023/04/13 06:00:10;;;;;;;;;;;;;;;11.39;50.90;99363.13;5580437;31;34731;-66
2023/04/13 06:03:15;;;;;;;;;;;;;;;11.48;49.68;99364.59;5586700;31;34282;-66
2023/04/13 06:06:19;;;;;;;;;;;;;;;11.47;49.39;99362.97;5563856;32;34168;-66
2023/04/13 06:09:22;;;;;;;;;;;;;;;11.56;49.11;99371.59;5563392;31;34610;-66
2023/04/13 06:12:25;;;;;;;;;;;;;;;11.23;49.77;99371.44;5572931;31;34675;-67
2023/04/13 06:15:28;;;;;;;;;;;;;;;11.08;50.49;99368.09;5575757;31;34269;-67
2023/04/13 06:18:30;;;;;;;;;;;;;;;11.02;50.98;99369.69;5569108;31;34036;-67
2023/04/13 06:21:33;;;;;;;;;;;;;;;11.17;50.42;99370.38;5553740;32;34421;-67
2023/04/13 06:24:36;;;;;;;;;;;;;;;11.00;49.73;99368.22;5555049;32;34712;-67
2023/04/13 06:27:42;;;;;;;;;;;;;;;10.83;50.31;99367.72;5572830;31;34387;-67
2023/04/13 06:30:45;;;;;;;;;;;;;;;10.87;50.24;99363.66;5569702;31;35092;-67
2023/04/13 06:33:49;;;;;;;;;;;;;;;11.12;52.19;99370.16;5575709;31;34661;-67
2023/04/13 06:36:56;;;;;;;;;;;;;;;11.31;50.76;99374.75;5571918;31;32601;-67
2023/04/13 06:40:11;;;;;;;;;;;;;;;11.76;50.36;99369.84;5567309;31;34959;-67
2023/04/13 06:43:15;;;;;;;;;;;;;;;12.37;50.01;99362.59;5569245;31;34167;-68
2023/04/13 06:46:31;;;;;;;;;;;;;;;12.45;46.48;99375.69;5568337;31;34689;-67
2023/04/13 06:49:34;;;;;;;;;;;;;;;12.78;46.21;99370.34;5578502;31;34084;-68
2023/04/13 06:52:37;;;;;;;;;;;;;;;13.22;44.54;99375.00;5570123;31;34436;-67
2023/04/13 06:55:40;;;;;;;;;;;;;;;13.15;44.79;99379.56;5566124;31;34203;-68
2023/04/13 06:58:44;;;;;;;;;;;;;;;12.86;45.91;99383.47;5566554;31;34945;-68
2023/04/13 07:01:46;;;;;;;;;;;;;;;13.10;44.54;99381.97;5580813;31;34132;-68
2023/04/13 07:04:49;;;;;;;;;;;;;;;12.98;45.89;99388.97;5586097;31;34636;-68
2023/04/13 07:07:52;;;;;;;;;;;;;;;12.92;45.28;99387.16;5572915;31;35022;-69
2023/04/13 07:10:56;;;;;;;;;;;;;;;12.55;46.97;99389.41;5581359;31;35212;-69
2023/04/13 07:14:01;;;;;;;;;;;;;;;12.66;45.80;99395.97;5573347;31;34914;-68
2023/04/13 07:17:04;;;;;;;;;;;;;;;12.55;46.67;99400.03;5573396;31;34236;-68
2023/04/13 07:20:08;;;;;;;;;;;;;;;12.45;46.37;99390.81;5587170;31;34171;-69
2023/04/13 07:23:11;;;;;;;;;;;;;;;12.05;48.18;99393.41;5582537;31;34586;-69
2023/04/13 07:26:14;;;;;;;;;;;;;;;12.19;47.36;99399.59;5577932;31;34240;-69
2023/04/13 07:29:16;;;;;;;;;;;;;;;12.31;47.25;99394.50;5586723;31;34437;-68
2023/04/13 07:32:21;;;;;;;;;;;;;;;12.17;47.05;99399.81;5557743;31;34356;-67
2023/04/13 07:35:30;;;;;;;;;;;;;;;12.04;47.52;99393.63;5567156;32;34320;-67
2023/04/13 07:38:34;;;;;;;;;;;;;;;12.43;47.01;99384.91;5568450;31;34525;-67
2023/04/13 07:41:37;;;;;;;;;;;;;;;13.27;47.13;99382.38;5577547;31;34715;-68
2023/04/13 07:44:40;;;;;;;;;;;;;;;14.22;44.11;99386.88;5586715;31;34312;-67
2023/04/13 07:47:43;;;;;;;;;;;;;;;13.64;44.31;99383.50;5587048;31;33293;-68
2023/04/13 07:50:47;;;;;;;;;;;;;;;13.97;45.45;99388.66;5586979;31;34261;-67
2023/04/13 07:53:51;;;;;;;;;;;;;;;13.49;44.50;99389.91;5586211;31;34866;-68
2023/04/13 07:56:55;;;;;;;;;;;;;;;14.57;44.10;99392.59;5586352;31;34280;-68
2023/04/13 07:59:58;;;;;;;;;;;;;;;15.08;42.30;99395.84;5572507;31;34928;-68
2023/04/13 08:03:02;;;;;;;;;;;;;;;15.83;41.05;99388.41;5587054;31;34116;-68
2023/04/13 08:06:06;;;;;;;;;;;;;;;16.00;40.36;99388.59;5572240;31;34022;-68
2023/04/13 08:09:08;;;;;;;;;;;;;;;15.35;41.21;99392.88;5567537;31;34602;-68
2023/04/13 08:12:11;;;;;;;;;;;;;;;14.75;42.79;99388.12;5566840;32;33954;-69
2023/04/13 08:15:14;;;;;;;;;;;;;;;15.65;41.79;99399.94;5582002;31;34796;-68
2023/04/13 08:18:17;;;;;;;;;;;;;;;14.95;42.03;99395.97;5586424;31;34836;-68
2023/04/13 08:21:20;;;;;;;;;;;;;;;15.52;41.67;99402.78;5582238;31;34011;-69
2023/04/13 08:24:24;;;;;;;;;;;;;;;16.18;39.97;99399.25;5574195;31;33901;-68
2023/04/13 08:27:27;;;;;;;;;;;;;;;16.22;40.32;99407.63;5566360;32;34348;-69
2023/04/13 08:30:33;;;;;;;;;;;;;;;15.96;41.05;99406.97;5570592;31;35065;-68
2023/04/13 08:33:36;;;;;;;;;;;;;;;16.67;38.98;99405.34;5565860;32;34227;-68
2023/04/13 08:36:39;;;;;;;;;;;;;;;15.88;39.46;99401.09;5565508;31;34588;-67
2023/04/13 08:39:42;;;;;;;;;;;;;;;15.69;40.18;99397.63;5583011;31;34153;-68
2023/04/13 08:42:45;;;;;;;;;;;;;;;14.97;40.92;99399.22;5585516;31;34155;-68
2023/04/13 08:45:48;;;;;;;;;;;;;;;14.91;40.25;99388.63;5585504;31;34688;-68
2023/04/13 08:48:53;;;;;;;;;;;;;;;15.41;40.26;99392.81;5571434;31;35101;-69
2023/04/13 08:51:58;;;;;;;;;;;;;;;15.71;39.88;99395.56;5585629;31;34212;-69
2023/04/13 08:55:03;;;;;;;;;;;;;;;15.61;38.54;99395.28;5583260;31;33998;-68
2023/04/13 08:58:07;;;;;;;;;;;;;;;15.71;39.35;99384.88;5574916;31;34232;-68
2023/04/13 09:01:12;;;;;;;;;;;;;;;15.39;39.06;99381.53;5565862;32;34809;-68
2023/04/13 09:04:18;;;;;;;;;;;;;;;14.78;40.03;99389.53;5551798;32;34686;-69
2023/04/13 09:07:25;;;;;;;;;;;;;;;15.65;38.50;99377.75;5583714;31;34869;-68
2023/04/13 09:10:29;;;;;;;;;;;;;;;16.05;39.46;99386.88;5586263;31;34314;-68
2023/04/13 09:13:32;;;;;;;;;;;;;;;16.28;38.26;99378.09;5588115;31;34321;-68
2023/04/13 09:16:42;;;;;;;;;;;;;;;16.38;38.47;99382.91;5585714;31;34373;-68
2023/04/13 09:19:46;;;;;;;;;;;;;;;16.38;37.86;99374.88;5568124;32;34565;-68
2023/04/13 09:22:50;;;;;;;;;;;;;;;16.52;38.46;99381.66;5574204;31;33492;-68
2023/04/13 09:26:06;;;;;;;;;;;;;;;16.87;38.49;99377.19;5589472;31;34042;-68
2023/04/13 09:29:13;;;;;;;;;;;;;;;15.60;38.95;99380.28;5588230;31;34199;-69
2023/04/13 09:32:23;;;;;;;;;;;;;;;16.13;37.99;99383.06;5588136;31;34823;-68
2023/04/13 09:35:28;;;;;;;;;;;;;;;16.20;37.58;99372.28;5561172;31;34360;-67
2023/04/13 09:38:31;;;;;;;;;;;;;;;17.83;36.93;99374.94;5571663;31;34940;-69
2023/04/13 09:41:35;;;;;;;;;;;;;;;17.32;35.68;99374.72;5584615;31;34679;-70
2023/04/13 09:44:38;;;;;;;;;;;;;;;17.41;35.05;99367.09;5587617;31;34596;-68
2023/04/13 09:47:41;;;;;;;;;;;;;;;17.25;34.76;99365.16;5577555;31;33951;-69
2023/04/13 09:50:44;;;;;;;;;;;;;;;16.98;35.14;99372.06;5568668;32;33193;-70
2023/04/13 09:53:47;;;;;;;;;;;;;;;17.57;34.68;99368.25;5568134;32;34848;-70
2023/04/13 09:56:51;;;;;;;;;;;;;;;17.51;34.88;99364.62;5554217;32;34677;-68
2023/04/13 09:59:56;;;;;;;;;;;;;;;17.70;34.49;99362.63;5567890;32;34215;-69
2023/04/13 10:03:00;;;;;;;;;;;;;;;17.76;34.79;99359.81;5569032;31;34544;-68
2023/04/13 10:06:05;;;;;;;;;;;;;;;18.84;33.05;99363.28;5584111;31;34475;-69
2023/04/13 10:09:08;;;;;;;;;;;;;;;19.03;32.89;99362.75;5587815;31;34804;-69
2023/04/13 10:12:12;;;;;;;;;;;;;;;19.44;31.82;99360.66;5581382;31;33977;-69
2023/04/13 10:15:15;;;;;;;;;;;;;;;19.89;31.68;99358.50;5567924;32;34227;-69
2023/04/13 10:18:41;;;;;;;;;;;;;;;19.95;31.07;99352.09;5566966;32;34651;-70
2023/04/13 10:21:45;;;;;;;;;;;;;;;20.08;31.56;99358.97;5567958;32;34153;-70
2023/04/13 10:24:51;;;;;;;;;;;;;;;18.98;32.12;99356.50;5567800;32;34593;-69
2023/04/13 10:28:00;;;;;;;;;;;;;;;18.65;33.39;99354.66;5566990;32;33931;-69
2023/04/13 10:31:04;;;;;;;;;;;;;;;17.55;34.77;99352.38;5568040;32;34076;-69
2023/04/13 10:34:08;;;;;;;;;;;;;;;17.26;36.48;99359.56;5571672;31;34978;-68
2023/04/13 10:37:15;;;;;;;;;;;;;;;17.65;35.43;99355.31;5568594;31;33281;-68
2023/04/13 10:40:17;;;;;;;;;;;;;;;17.66;35.73;99351.56;5566808;32;34512;-68
2023/04/13 10:43:30;;;;;;;;;;;;;;;17.64;35.01;99364.38;5567307;32;34186;-69
2023/04/13 10:46:35;;;;;;;;;;;;;;;17.43;35.47;99343.53;5555530;32;34293;-69
2023/04/13 10:49:42;;;;;;;;;;;;;;;17.45;35.69;99346.81;5567542;31;34190;-68
2023/04/13 10:52:59;;;;;;;;;;;;;;;17.68;35.25;99354.00;5586947;31;34255;-69
2023/04/13 10:56:01;;;;;;;;;;;;;;;16.73;37.04;99346.31;5578580;31;34285;-68
2023/04/13 10:59:04;;;;;;;;;;;;;;;16.66;38.38;99342.91;5567378;31;33590;-69
2023/04/13 11:02:13;;;;;;;;;;;;;;;16.94;37.20;99331.53;5567334;32;33916;-69
2023/04/13 11:05:16;;;;;;;;;;;;;;;17.07;37.72;99325.09;5567105;32;34435;-69
2023/04/13 11:08:19;;;;;;;;;;;;;;;17.23;37.27;99329.75;5567347;32;34008;-68
2023/04/13 11:11:23;;;;;;;;;;;;;;;17.09;37.20;99323.00;5566594;32;34324;-68
2023/04/13 11:14:26;;;;;;;;;;;;;;;17.43;37.57;99314.03;5559229;32;34115;-70
2023/04/13 11:17:29;;;;;;;;;;;;;;;17.91;36.62;99321.69;5567252;32;33990;-69
2023/04/13 11:20:33;;;;;;;;;;;;;;;18.25;36.90;99319.88;5567762;32;34159;-69
2023/04/13 11:23:36;;;;;;;;;;;;;;;18.37;35.87;99322.50;5553629;32;34915;-69
2023/04/13 11:26:39;;;;;;;;;;;;;;;18.66;35.04;99316.00;5567304;32;33958;-69
2023/04/13 11:29:44;;;;;;;;;;;;;;;18.56;35.51;99315.84;5566519;32;34223;-69
2023/04/13 11:32:49;;;;;;;;;;;;;;;18.93;35.41;99318.78;5567662;32;34755;-70
2023/04/13 11:35:55;;;;;;;;;;;;;;;18.99;35.10;99309.75;5574537;31;34438;-69
2023/04/13 11:39:00;;;;;;;;;;;;;;;19.34;35.23;99307.53;5569378;31;34055;-69
2023/04/13 11:42:06;;;;;;;;;;;;;;;19.95;33.68;99311.72;5573285;31;34933;-69
2023/04/13 11:45:10;;;;;;;;;;;;;;;19.72;33.86;99303.12;5580422;31;34365;-69
2023/04/13 11:48:13;;;;;;;;;;;;;;;18.43;35.37;99300.84;5577961;31;34367;-69
2023/04/13 11:51:16;;;;;;;;;;;;;;;18.14;36.80;99296.62;5577181;31;34890;-69
2023/04/13 11:54:19;;;;;;;;;;;;;;;18.56;36.19;99295.16;5572007;31;33297;-69
2023/04/13 11:57:22;;;;;;;;;;;;;;;19.01;35.74;99300.41;5568258;31;33903;-69
2023/04/13 12:00:26;;;;;;;;;;;;;;;19.21;35.34;99301.72;5566774;32;34434;-70
2023/04/13 12:03:32;;;;;;;;;;;;;;;20.00;33.52;99293.97;5566351;32;34305;-69
2023/04/13 12:06:54;;;;;;;;;;;;;;;20.01;32.98;99291.03;5555317;31;34287;-70
2023/04/13 12:09:57;;;;;;;;;;;;;;;20.05;32.81;99281.38;5566979;32;34133;-69
2023/04/13 12:13:10;;;;;;;;;;;;;;;20.78;31.49;99275.22;5567224;32;34479;-69
2023/04/13 12:16:23;;;;;;;;;;;;;;;19.95;32.68;99281.28;5566396;31;34643;-69
2023/04/13 12:19:45;;;;;;;;;;;;;;;19.99;33.17;99281.59;5565856;32;34792;-69
2023/04/13 12:22:51;;;;;;;;;;;;;;;19.54;33.65;99274.69;5565286;32;34873;-70
2023/04/13 12:26:09;;;;;;;;;;;;;;;19.52;33.41;99263.38;5566409;32;34265;-69
2023/04/13 12:29:36;;;;;;;;;;;;;;;19.29;34.27;99255.56;5581261;31;33647;-69
2023/04/13 12:32:41;;;;;;;;;;;;;;;18.86;35.03;99265.25;5585403;31;34688;-70
2023/04/13 12:35:45;;;;;;;;;;;;;;;18.59;35.25;99262.44;5586263;31;34571;-68
2023/04/13 12:38:48;;;;;;;;;;;;;;;18.21;35.55;99257.81;5585879;31;34508;-68
2023/04/13 12:41:51;;;;;;;;;;;;;;;17.62;36.52;99243.09;5573473;31;34779;-70
2023/04/13 12:44:55;;;;;;;;;;;;;;;18.52;35.38;99242.97;5574318;31;33427;-69
2023/04/13 12:47:57;;;;;;;;;;;;;;;19.21;35.09;99248.75;5588709;31;34247;-68
2023/04/13 12:51:00;;;;;;;;;;;;;;;19.26;34.74;99238.06;5586868;31;34755;-69
2023/04/13 12:54:11;;;;;;;;;;;;;;;18.99;35.43;99238.00;5570259;31;34568;-69
2023/04/13 12:57:17;;;;;;;;;;;;;;;19.00;34.62;99230.75;5568695;32;33954;-68
2023/04/13 13:00:20;;;;;;;;;;;;;;;18.75;36.61;99227.72;5569789;31;34172;-70
2023/04/13 13:03:23;;;;;;;;;;;;;;;19.71;34.17;99226.16;5568866;31;34116;-69
2023/04/13 13:06:26;;;;;;;;;;;;;;;19.31;34.02;99237.31;5567883;32;34292;-69
2023/04/13 13:09:29;;;;;;;;;;;;;;;19.29;34.35;99231.34;5568428;32;34525;-69
2023/04/13 13:12:31;;;;;;;;;;;;;;;19.72;34.35;99231.28;5568371;32;34499;-70
2023/04/13 13:15:34;;;;;;;;;;;;;;;19.57;33.69;99233.81;5568362;32;33914;-70
2023/04/13 13:18:37;;;;;;;;;;;;;;;19.60;34.34;99229.84;5568342;32;34686;-69
2023/04/13 13:21:52;;;;;;;;;;;;;;;18.15;35.92;99229.25;5580806;31;34212;-69
2023/04/13 13:24:55;;;;;;;;;;;;;;;18.20;36.76;99223.16;5588145;31;34244;-68
2023/04/13 13:28:01;;;;;;;;;;;;;;;19.39;34.54;99226.09;5574457;31;35385;-69
2023/04/13 13:31:15;;;;;;;;;;;;;;;19.11;34.47;99232.50;5575390;31;34114;-69
2023/04/13 13:34:17;;;;;;;;;;;;;;;18.31;36.30;99224.13;5573299;31;34245;-69
2023/04/13 13:37:20;;;;;;;;;;;;;;;18.21;36.31;99219.41;5570923;31;34313;-69
2023/04/13 13:40:22;;;;;;;;;;;;;;;18.11;36.71;99216.56;5557197;31;35124;-70
2023/04/13 13:43:25;;;;;;;;;;;;;;;18.53;34.47;99212.41;5570380;31;34251;-69
2023/04/13 13:46:27;;;;;;;;;;;;;;;18.31;34.25;99208.81;5568135;31;34077;-68
2023/04/13 13:49:31;;;;;;;;;;;;;;;18.35;34.48;99195.75;5573524;31;33948;-69
2023/04/13 13:52:34;;;;;;;;;;;;;;;18.63;34.26;99199.13;5576123;31;34343;-69
2023/04/13 13:55:37;;;;;;;;;;;;;;;18.14;35.01;99208.84;5584455;31;33829;-68
2023/04/13 13:58:40;;;;;;;;;;;;;;;17.79;35.84;99200.22;5580760;31;34645;-69
2023/04/13 14:01:43;;;;;;;;;;;;;;;18.37;36.30;99198.97;5585608;31;34322;-69
2023/04/13 14:04:46;;;;;;;;;;;;;;;18.30;37.72;99206.41;5586444;31;34270;-69
2023/04/13 14:07:48;;;;;;;;;;;;;;;18.53;36.33;99204.34;5586378;31;34726;-70
2023/04/13 14:10:51;;;;;;;;;;;;;;;18.35;36.44;99187.69;5586359;31;34745;-69
2023/04/13 14:13:54;;;;;;;;;;;;;;;18.08;35.93;99191.03;5569747;31;34382;-68
2023/04/13 14:16:57;;;;;;;;;;;;;;;17.72;37.16;99183.47;5570672;31;34419;-68
2023/04/13 14:20:00;;;;;;;;;;;;;;;17.92;37.78;99186.47;5571056;31;34188;-68
2023/04/13 14:23:02;;;;;;;;;;;;;;;18.13;37.33;99191.13;5566602;32;35661;-69
2023/04/13 14:26:05;;;;;;;;;;;;;;;18.00;37.22;99179.91;5566767;32;34302;-68
2023/04/13 14:29:07;;;;;;;;;;;;;;;17.87;37.80;99185.59;5566456;32;35117;-68
2023/04/13 14:32:10;;;;;;;;;;;;;;;17.75;38.03;99185.69;5572598;31;33977;-68
2023/04/13 14:35:14;;;;;;;;;;;;;;;17.52;38.27;99178.56;5565263;32;34907;-68
2023/04/13 14:38:16;;;;;;;;;;;;;;;17.54;39.57;99180.97;5566415;32;34334;-68
2023/04/13 14:41:19;;;;;;;;;;;;;;;17.01;38.61;99186.69;5570190;31;34855;-69
2023/04/13 14:44:22;;;;;;;;;;;;;;;17.01;38.64;99176.78;5558607;32;218590;-68
2023/04/13 14:47:25;;;;;;;;;;;;;;;17.01;40.21;99171.44;5566811;32;34105;-68
2023/04/13 14:50:27;;;;;;;;;;;;;;;17.14;40.37;99173.00;5571500;31;34158;-68
2023/04/13 14:53:30;;;;;;;;;;;;;;;16.93;39.74;99169.97;5573669;31;34841;-68
2023/04/13 14:56:33;;;;;;;;;;;;;;;16.89;40.69;99176.81;5568303;31;34699;-69
2023/04/13 14:59:37;;;;;;;;;;;;;;;16.91;39.06;99176.59;5568521;31;34116;-68
2023/04/13 15:02:39;;;;;;;;;;;;;;;16.78;40.29;99176.88;5566427;31;34821;-68
2023/04/13 15:05:46;;;;;;;;;;;;;;;16.95;40.29;99180.41;5567487;32;34104;-68
2023/04/13 15:08:49;;;;;;;;;;;;;;;16.81;40.95;99179.88;5566808;32;34106;-68
2023/04/13 15:11:52;;;;;;;;;;;;;;;16.63;40.31;99187.28;5559251;31;34448;-68
2023/04/13 15:14:55;;;;;;;;;;;;;;;16.46;40.82;99182.59;5579204;31;33995;-68
2023/04/13 15:17:58;;;;;;;;;;;;;;;16.47;41.87;99184.22;5572823;31;34563;-68
2023/04/13 15:21:04;;;;;;;;;;;;;;;16.45;42.62;99190.88;5568810;31;34270;-68
2023/04/13 15:24:08;;;;;;;;;;;;;;;16.44;41.84;99187.38;5566245;32;34651;-68
2023/04/13 15:27:12;;;;;;;;;;;;;;;16.32;41.81;99189.25;5566161;32;34921;-69
2023/04/13 15:30:15;;;;;;;;;;;;;;;16.36;43.39;99193.06;5566440;32;34743;-68
2023/04/13 15:33:17;;;;;;;;;;;;;;;16.22;45.28;99189.00;5567324;32;34180;-68
2023/04/13 15:36:21;;;;;;;;;;;;;;;16.05;49.51;99204.16;5568144;31;34824;-68
2023/04/13 15:39:23;;;;;;;;;;;;;;;15.88;52.50;99190.63;5587082;31;34119;-68
2023/04/13 15:42:26;;;;;;;;;;;;;;;15.45;54.41;99206.88;5586408;31;34292;-68
2023/04/13 15:45:28;;;;;;;;;;;;;;;14.98;61.16;99203.22;5586855;31;34346;-66
2023/04/13 15:48:31;;;;;;;;;;;;;;;14.76;60.73;99191.38;5586979;31;33920;-68
2023/04/13 15:51:33;;;;;;;;;;;;;;;14.83;60.15;99200.13;5586931;31;33817;-68
2023/04/13 15:54:36;;;;;;;;;;;;;;;15.07;60.43;99211.72;5586852;31;34209;-68
2023/04/13 15:57:38;;;;;;;;;;;;;;;15.06;69.05;99202.91;5586481;31;34947;-68
2023/04/13 16:00:41;;;;;;;;;;;;;;;15.10;65.88;99198.72;5571210;31;34092;-68
2023/04/13 16:03:44;;;;;;;;;;;;;;;15.08;74.78;99198.16;5586640;31;33780;-68